Time;durP1;ratioP1;P1;durP2;ratioP2;P2;SDS_P1;SDS_P2;PMS_P1;PMS_P2;Temp;Humidity;BMP_temperature;BMP_pressure;BME280_temperature;BME280_humidity;BME280_pressure;Samples;Min_cycle;Max_cycle;Signal;HPM_P1;HPM_P2
2022/09/08 00:00:00;;;;;;;19.45;17.35;;;17.60;1.00;;;;;;5009646;28;20040;-61
2022/09/08 00:02:25;;;;;;;20.63;18.48;;;17.60;1.00;;;;;;5009968;28;20038;-61
2022/09/08 00:04:51;;;;;;;21.10;18.90;;;17.70;1.00;;;;;;5009331;28;20125;-61
2022/09/08 00:07:18;;;;;;;19.08;17.00;;;17.90;1.00;;;;;;5009493;28;20117;-61
2022/09/08 00:09:44;;;;;;;22.98;18.10;;;17.70;1.00;;;;;;5010263;28;20109;-61
2022/09/08 00:12:12;;;;;;;22.40;18.42;;;;;;;;;;5009692;28;20034;-61
2022/09/08 00:14:40;;;;;;;19.58;17.55;;;;;;;;;;5009726;28;20064;-61
2022/09/08 00:17:05;;;;;;;20.05;17.65;;;17.80;1.00;;;;;;5010203;28;20038;-61
2022/09/08 00:19:31;;;;;;;19.88;17.70;;;;;;;;;;5010132;28;20053;-61
2022/09/08 00:21:57;;;;;;;20.65;18.45;;;;;;;;;;5009774;28;20048;-61
2022/09/08 00:24:23;;;;;;;21.90;17.05;;;17.90;1.00;;;;;;5017941;28;20080;-61
2022/09/08 00:26:48;;;;;;;19.67;17.58;;;17.80;1.00;;;;;;5009912;28;20057;-60
2022/09/08 00:29:14;;;;;;;23.33;18.77;;;17.80;1.00;;;;;;5013928;28;20045;-61
2022/09/08 00:31:41;;;;;;;21.40;18.75;;;;;;;;;;5008967;28;20422;-61
2022/09/08 00:34:07;;;;;;;20.80;17.20;;;17.60;1.00;;;;;;5009564;28;20041;-61
2022/09/08 00:36:33;;;;;;;24.33;19.77;;;17.60;1.00;;;;;;5009571;28;20042;-61
2022/09/08 00:39:00;;;;;;;20.73;18.55;;;17.70;1.00;;;;;;5009258;28;20053;-60
2022/09/08 00:41:27;;;;;;;21.83;19.13;;;;;;;;;;5009827;28;20053;-61
2022/09/08 00:44:00;;;;;;;24.20;19.35;;;;;;;;;;5017533;28;20073;-61
2022/09/08 00:46:33;;;;;;;22.73;18.48;;;;;;;;;;5009768;28;20056;-60
2022/09/08 00:49:04;;;;;;;22.65;18.77;;;;;;;;;;5009010;28;20558;-61
2022/09/08 00:51:31;;;;;;;22.83;19.25;;;17.40;1.00;;;;;;5009946;28;20065;-61
2022/09/08 00:53:58;;;;;;;20.60;18.40;;;17.40;1.00;;;;;;5020164;28;20069;-61
2022/09/08 00:56:26;;;;;;;22.02;18.92;;;;;;;;;;5009625;28;20319;-60
2022/09/08 00:58:52;;;;;;;20.55;18.23;;;17.60;1.00;;;;;;5008982;28;20041;-60
2022/09/08 01:01:18;;;;;;;21.38;19.08;;;;;;;;;;5010023;28;20488;-60
2022/09/08 01:03:44;;;;;;;22.75;19.80;;;17.60;1.00;;;;;;5009786;28;20042;-60
2022/09/08 01:14:57;;;;;;;21.00;17.77;;;;;;;;;;5015432;28;20124;-61
2022/09/08 01:17:25;;;;;;;20.13;16.98;;;;;;;;;;5011421;28;20388;-61
2022/09/08 01:19:51;;;;;;;20.30;17.63;;;;;;;;;;5012687;28;20038;-61
2022/09/08 01:22:36;;;;;;;21.42;17.15;;;;;;;;;;5012832;28;20096;-61
2022/09/08 01:25:02;;;;;;;;;;;;;;;;;;5012841;28;20092;-61
2022/09/08 01:27:31;;;;;;;29.38;17.42;;;;;;;;;;5011712;28;19925;-61
2022/09/08 01:30:03;;;;;;;18.52;16.52;;;17.80;1.00;;;;;;5012610;28;20208;-61
2022/09/08 01:32:32;;;;;;;19.17;17.05;;;17.50;1.00;;;;;;5012586;28;20034;-61
2022/09/08 01:34:58;;;;;;;19.08;17.00;;;;;;;;;;5029567;28;20056;-61
2022/09/08 01:37:24;;;;;;;21.58;17.58;;;17.70;1.00;;;;;;5023264;28;20037;-61
2022/09/08 01:39:50;;;;;;;19.52;17.40;;;17.90;1.00;;;;;;5012066;28;20030;-61
2022/09/08 01:42:15;;;;;;;20.15;16.55;;;17.80;1.00;;;;;;5012044;28;20038;-61
2022/09/08 01:44:43;;;;;;;18.80;16.80;;;17.80;1.00;;;;;;5012016;28;20562;-61
2022/09/08 01:47:09;;;;;;;21.67;18.17;;;;;;;;;;5011584;28;20034;-61
2022/09/08 01:49:35;;;;;;;19.48;17.35;;;17.70;1.00;;;;;;5012072;28;20092;-61
2022/09/08 01:52:01;;;;;;;20.02;17.92;;;17.80;1.00;;;;;;5016648;28;20042;-61
2022/09/08 01:54:27;;;;;;;21.13;18.27;;;17.80;1.00;;;;;;5012127;28;20065;-61
2022/09/08 01:56:57;;;;;;;20.45;18.25;;;17.60;1.00;;;;;;5010865;28;20041;-61
2022/09/08 01:59:22;;;;;;;20.20;18.02;;;17.80;1.00;;;;;;5024202;28;20045;-61
2022/09/08 02:01:49;;;;;;;21.85;18.75;;;;;;;;;;5012557;28;20088;-61
2022/09/08 02:04:15;;;;;;;22.90;19.80;;;17.80;1.00;;;;;;5011952;28;20081;-61
2022/09/08 02:06:41;;;;;;;20.80;18.42;;;17.80;1.00;;;;;;5011563;28;20128;-61
2022/09/08 02:09:07;;;;;;;21.48;18.38;;;17.80;1.00;;;;;;5013752;28;20599;-62
2022/09/08 02:11:33;;;;;;;22.05;18.17;;;;;;;;;;5011271;28;20391;-60
2022/09/08 02:13:58;;;;;;;21.35;19.05;;;17.80;1.00;;;;;;5011958;28;20038;-60
2022/09/08 02:16:24;;;;;;;22.35;19.70;;;17.80;1.00;;;;;;5017841;28;20037;-60
2022/09/08 02:18:52;;;;;;;22.83;19.10;;;17.80;1.00;;;;;;5017839;28;20087;-60
2022/09/08 02:21:19;;;;;;;21.63;19.33;;;17.60;1.00;;;;;;5021330;28;20085;-60
2022/09/08 02:23:46;;;;;;;21.45;19.00;;;;;;;;;;5019904;28;20510;-60
2022/09/08 02:26:18;;;;;;;22.35;19.98;;;17.70;1.00;;;;;;5020422;28;20495;-60
2022/09/08 02:28:44;;;;;;;23.98;20.65;;;17.70;1.00;;;;;;5005539;28;20084;-62
2022/09/08 02:31:10;;;;;;;22.30;19.83;;;;;;;;;;5009283;28;20033;-62
2022/09/08 02:33:36;;;;;;;23.33;20.92;;;17.70;1.00;;;;;;5027745;28;20391;-60
2022/09/08 02:36:03;;;;;;;23.75;21.25;;;;;;;;;;5024046;28;20037;-60
2022/09/08 02:38:29;;;;;;;21.65;19.10;;;17.70;1.00;;;;;;5021581;28;20053;-60
2022/09/08 02:40:55;;;;;;;24.25;21.75;;;;;;;;;;5030927;28;20415;-60
2022/09/08 02:43:22;;;;;;;22.63;20.13;;;17.90;1.00;;;;;;5023516;28;20038;-60
2022/09/08 02:45:48;;;;;;;23.40;20.95;;;17.90;1.00;;;;;;5005932;28;21252;-60
2022/09/08 02:48:14;;;;;;;24.70;21.55;;;;;;;;;;5011055;28;20540;-60
2022/09/08 02:50:41;;;;;;;24.42;21.45;;;17.80;1.00;;;;;;5014517;28;20459;-60
2022/09/08 02:53:07;;;;;;;26.58;23.27;;;;;;;;;;5011860;28;20041;-60
2022/09/08 02:55:36;;;;;;;24.63;21.92;;;;;;;;;;5022770;28;20073;-60
2022/09/08 02:58:01;;;;;;;26.17;23.23;;;17.80;1.00;;;;;;5022220;28;20572;-61
2022/09/08 03:00:32;;;;;;;25.65;22.85;;;17.90;1.00;;;;;;5023909;28;20050;-60
2022/09/08 03:02:58;;;;;;;27.25;23.63;;;17.80;1.00;;;;;;5014860;28;20041;-60
2022/09/08 03:05:24;;;;;;;27.85;24.52;;;17.80;1.00;;;;;;5025674;28;20041;-60
2022/09/08 03:07:50;;;;;;;26.90;24.05;;;17.80;1.00;;;;;;5026534;28;20030;-60
2022/09/08 03:10:16;;;;;;;26.10;23.30;;;;;;;;;;5023989;28;20654;-60
2022/09/08 03:12:42;;;;;;;26.35;23.38;;;17.80;1.00;;;;;;5013201;28;20042;-60
2022/09/08 03:15:08;;;;;;;27.73;24.70;;;17.80;1.00;;;;;;5022523;28;20418;-60
2022/09/08 03:17:34;;;;;;;31.52;27.20;;;17.80;1.00;;;;;;5052615;22;20522;-86
2022/09/08 03:19:59;;;;;;;29.20;24.80;;;17.90;1.00;;;;;;5021604;28;20069;-85
2022/09/08 03:22:25;;;;;;;30.95;26.60;;;17.80;1.00;;;;;;5004270;28;20038;-85
2022/09/08 03:24:51;;;;;;;29.13;26.00;;;17.40;1.00;;;;;;5019543;28;20045;-85
2022/09/08 03:27:16;;;;;;;30.55;26.67;;;17.50;1.00;;;;;;4991396;28;20161;-84
2022/09/08 03:29:42;;;;;;;30.63;27.15;;;17.70;1.00;;;;;;4975681;28;20152;-84
2022/09/08 03:32:08;;;;;;;30.00;26.77;;;17.20;1.00;;;;;;4977448;28;20037;-84
2022/09/08 03:34:34;;;;;;;28.17;25.17;;;17.40;1.00;;;;;;4981718;28;20529;-85
2022/09/08 03:36:59;;;;;;;27.52;24.48;;;17.40;1.00;;;;;;4998074;28;20045;-84
2022/09/08 03:39:25;;;;;;;32.60;27.35;;;17.90;1.00;;;;;;4998609;28;20038;-84
2022/09/08 03:41:51;;;;;;;32.13;28.02;;;17.30;1.00;;;;;;4998970;28;20033;-87
2022/09/08 03:44:16;;;;;;;30.40;26.55;;;17.30;1.00;;;;;;4976192;28;20485;-85
2022/09/08 03:46:42;;;;;;;28.92;25.83;;;17.20;1.00;;;;;;4984830;28;20050;-85
2022/09/08 03:49:08;;;;;;;29.67;26.15;;;17.20;1.00;;;;;;4981889;28;20037;-84
2022/09/08 03:51:34;;;;;;;29.85;26.58;;;17.90;1.00;;;;;;4993549;28;20111;-85
2022/09/08 03:56:49;;;;;;;30.48;27.25;;;17.10;1.00;;;;;;5020818;28;20793;-85
2022/09/08 03:59:15;;;;;;;29.65;26.50;;;17.60;1.00;;;;;;4981427;28;20776;-85
2022/09/08 04:01:41;;;;;;;27.92;24.77;;;17.60;1.00;;;;;;4977514;28;20038;-83
2022/09/08 04:04:07;;;;;;;28.98;25.88;;;17.10;1.00;;;;;;4979041;28;20517;-86
2022/09/08 04:06:32;;;;;;;29.55;25.95;;;17.90;1.00;;;;;;4979945;28;20049;-87
2022/09/08 04:08:58;;;;;;;29.67;26.38;;;17.50;1.00;;;;;;4980409;28;20288;-85
2022/09/08 04:11:24;;;;;;;31.15;26.88;;;17.10;1.00;;;;;;4980870;28;20042;-85
2022/09/08 04:13:50;;;;;;;31.58;28.23;;;17.90;1.00;;;;;;4997838;28;20467;-85
2022/09/08 04:16:17;;;;;;;31.15;27.55;;;17.40;1.00;;;;;;4981601;28;20045;-85
2022/09/08 04:18:43;;;;;;;29.50;26.48;;;17.50;1.00;;;;;;4995250;28;20045;-85
2022/09/08 04:21:10;;;;;;;30.33;27.02;;;18.00;1.00;;;;;;4983330;28;20037;-84
2022/09/08 04:23:37;;;;;;;28.15;25.35;;;18.30;1.00;;;;;;4996362;28;20124;-84
2022/09/08 04:26:07;;;;;;;28.40;25.35;;;18.20;1.00;;;;;;4990174;28;20045;-85
2022/09/08 04:28:34;;;;;;;27.98;24.98;;;17.80;1.00;;;;;;5005390;28;20046;-83
2022/09/08 04:31:09;;;;;;;28.15;24.33;;;17.20;1.00;;;;;;4973632;28;20042;-86
2022/09/08 04:33:35;;;;;;;31.67;27.98;;;17.70;1.00;;;;;;4981675;28;20052;-83
2022/09/08 04:36:09;;;;;;;33.42;28.73;;;17.40;1.00;;;;;;4991902;28;20321;-82
2022/09/08 04:38:35;;;;;;;33.72;30.20;;;18.30;1.00;;;;;;5006979;28;20053;-84
2022/09/08 04:41:05;;;;;;;34.75;30.42;;;17.40;1.00;;;;;;4997218;28;20116;-86
2022/09/08 04:43:32;;;;;;;36.13;30.73;;;18.20;1.00;;;;;;4988016;28;20532;-84
2022/09/08 04:46:07;;;;;;;35.75;31.88;;;17.80;1.00;;;;;;5001616;28;20041;-84
2022/09/08 04:48:34;;;;;;;35.55;30.45;;;16.80;1.00;;;;;;5010951;28;20045;-86
2022/09/08 04:51:00;;;;;;;32.15;27.63;;;17.30;1.00;;;;;;5009451;28;20037;-87
2022/09/08 04:53:27;;;;;;;31.55;26.48;;;;;;;;;;4998699;28;20095;-86
2022/09/08 04:55:54;;;;;;;30.02;24.75;;;17.60;1.00;;;;;;4977885;28;20045;-86
2022/09/08 04:58:20;;;;;;;29.50;24.10;;;18.70;1.00;;;;;;4983786;28;20038;-84
2022/09/08 05:00:46;;;;;;;28.50;23.80;;;17.50;1.00;;;;;;4993370;28;20045;-84
2022/09/08 05:03:12;;;;;;;25.63;22.17;;;17.70;1.00;;;;;;4996389;28;20639;-84
2022/09/08 05:05:38;;;;;;;25.17;20.33;;;17.50;1.00;;;;;;4994856;28;20049;-84
2022/09/08 05:08:04;;;;;;;23.90;18.58;;;17.70;1.00;;;;;;4991104;28;20117;-85
2022/09/08 05:10:34;;;;;;;24.30;18.90;;;17.50;1.00;;;;;;4975317;28;20046;-87
2022/09/08 05:13:00;;;;;;;26.55;21.38;;;18.00;1.00;;;;;;4990188;28;20034;-86
2022/09/08 05:15:27;;;;;;;23.85;20.08;;;17.30;1.00;;;;;;4979032;28;20105;-86
2022/09/08 05:17:54;;;;;;;24.75;20.60;;;17.10;1.00;;;;;;4970457;28;20105;-86
2022/09/08 05:20:29;;;;;;;26.35;22.25;;;17.20;1.00;;;;;;4977376;28;20144;-87
2022/09/08 05:22:57;;;;;;;25.42;20.88;;;16.80;1.00;;;;;;5000156;28;20120;-86
2022/09/08 05:25:28;;;;;;;26.73;20.88;;;17.40;1.00;;;;;;5003158;28;20037;-86
2022/09/08 05:27:56;;;;;;;22.42;19.98;;;17.40;1.00;;;;;;4993482;28;20553;-87
2022/09/08 05:30:21;;;;;;;21.45;18.48;;;17.40;1.00;;;;;;4991327;28;20038;-86
2022/09/08 05:32:47;;;;;;;22.08;19.48;;;17.30;1.00;;;;;;4999166;28;20045;-84
2022/09/08 05:35:13;;;;;;;24.98;22.27;;;17.40;1.00;;;;;;5013484;28;20037;-86
2022/09/08 05:37:39;;;;;;;24.85;20.15;;;16.60;1.00;;;;;;5012962;28;20038;-84
2022/09/08 05:40:05;;;;;;;22.33;19.55;;;17.60;1.00;;;;;;4982619;28;20528;-85
2022/09/08 05:42:31;;;;;;;27.13;22.75;;;17.40;1.00;;;;;;4996637;28;20060;-85
2022/09/08 05:44:56;;;;;;;26.13;23.33;;;17.10;1.00;;;;;;4987182;28;20041;-86
2022/09/08 05:47:22;;;;;;;30.45;23.90;;;17.50;1.00;;;;;;4979141;28;20506;-86
2022/09/08 05:49:47;;;;;;;27.98;23.17;;;17.60;1.00;;;;;;5013516;28;20076;-88
2022/09/08 05:52:13;;;;;;;26.10;20.35;;;17.90;1.00;;;;;;5015718;28;20033;-87
2022/09/08 05:54:39;;;;;;;27.17;23.65;;;18.70;1.00;;;;;;4996916;28;20096;-86
2022/09/08 05:57:05;;;;;;;29.95;25.05;;;17.80;1.00;;;;;;4988518;28;20041;-86
2022/09/08 05:59:31;;;;;;;28.92;25.35;;;17.40;1.00;;;;;;4994614;28;20409;-86
2022/09/08 06:01:56;;;;;;;34.30;28.95;;;17.40;1.00;;;;;;5006261;28;20136;-88
2022/09/08 06:04:22;;;;;;;29.65;25.25;;;17.30;1.00;;;;;;5006072;28;20457;-88
2022/09/08 06:06:48;;;;;;;30.25;26.58;;;17.00;1.00;;;;;;4978551;28;20046;-86
2022/09/08 06:09:14;;;;;;;31.90;27.55;;;17.40;1.00;;;;;;4987648;28;20053;-85
2022/09/08 06:11:41;;;;;;;30.27;27.00;;;17.10;1.00;;;;;;4973648;28;20552;-86
2022/09/08 06:14:07;;;;;;;31.10;26.83;;;17.30;1.00;;;;;;4975364;28;20088;-87
2022/09/08 06:16:33;;;;;;;33.47;26.23;;;17.60;1.00;;;;;;4988435;28;20147;-89
2022/09/08 06:19:00;;;;;;;38.22;28.15;;;17.40;1.00;;;;;;4979478;28;20045;-87
2022/09/08 06:21:29;;;;;;;34.35;28.75;;;17.20;1.00;;;;;;5012572;28;20042;-87
2022/09/08 06:23:58;;;;;;;32.67;29.02;;;17.20;1.00;;;;;;5007575;28;20411;-88
2022/09/08 06:27:01;;;;;;;43.28;35.28;;;17.40;1.00;;;;;;5004779;28;20084;-88
2022/09/08 06:29:34;;;;;;;45.22;37.35;;;17.30;1.00;;;;;;4990436;28;20042;-91
2022/09/08 06:32:18;;;;;;;43.53;34.90;;;17.50;1.00;;;;;;4966938;28;20050;-88
2022/09/08 06:34:49;;;;;;;41.10;33.85;;;16.90;1.00;;;;;;5001317;28;20497;-88
2022/09/08 06:37:32;;;;;;;39.90;34.20;;;17.30;1.00;;;;;;4991949;28;20068;-88
2022/09/08 06:40:03;;;;;;;42.20;33.30;;;17.30;1.00;;;;;;5004387;28;20069;-89
2022/09/08 06:42:50;;;;;;;37.72;31.42;;;17.60;1.00;;;;;;4988792;28;20037;-88
2022/09/08 06:45:24;;;;;;;39.25;31.17;;;16.60;1.00;;;;;;5009646;28;20189;-87
2022/09/08 06:48:00;;;;;;;44.72;35.75;;;17.90;1.00;;;;;;4989705;28;20049;-88
2022/09/08 06:50:25;;;;;;;52.75;39.85;;;17.20;1.00;;;;;;4994999;28;20048;-87
2022/09/08 06:52:53;;;;;;;50.88;39.45;;;17.50;1.00;;;;;;4994612;28;20045;-88
2022/09/08 06:55:38;;;;;;;57.53;41.28;;;;;;;;;;4976713;28;20053;-86
2022/09/08 06:58:27;;;;;;;49.17;39.28;;;17.20;1.00;;;;;;5007919;28;20087;-89
2022/09/08 07:01:26;;;;;;;55.53;40.13;;;17.10;1.00;;;;;;4966766;28;20045;-89
2022/09/08 07:03:58;;;;;;;60.85;43.22;;;;;;;;;;4998105;28;20049;-87
2022/09/08 07:06:27;;;;;;;53.20;38.78;;;17.00;1.00;;;;;;4991584;28;20056;-87
2022/09/08 07:09:11;;;;;;;54.90;34.53;;;;;;;;;;4973045;28;20088;-87
2022/09/08 07:11:50;;;;;;;41.83;27.00;;;;;;;;;;5014468;28;20046;-88
2022/09/08 07:15:00;;;;;;;24.75;20.30;;;17.00;1.00;;;;;;4975787;28;20103;-88
2022/09/08 07:17:58;;;;;;;35.42;25.23;;;16.60;1.00;;;;;;4977548;28;20041;-88
2022/09/08 07:20:27;;;;;;;30.35;20.67;;;17.20;1.00;;;;;;4996346;28;20378;-87
2022/09/08 07:22:56;;;;;;;29.95;22.05;;;;;;;;;;4968291;28;20149;-88
2022/09/08 07:25:34;;;;;;;24.98;17.55;;;17.00;1.00;;;;;;5007567;28;20042;-87
2022/09/08 07:28:05;;;;;;;19.83;13.70;;;17.00;1.00;;;;;;4990078;28;20613;-87
2022/09/08 07:30:34;;;;;;;16.67;13.48;;;17.00;1.00;;;;;;5018693;28;20584;-87
2022/09/08 07:33:22;;;;;;;18.10;11.88;;;;;;;;;;4991116;28;20543;-86
2022/09/08 07:36:09;;;;;;;17.08;12.68;;;16.40;1.00;;;;;;4978469;28;20435;-87
2022/09/08 07:38:41;;;;;;;16.02;11.10;;;;;;;;;;5018467;28;20053;-89
2022/09/08 07:41:11;;;;;;;15.02;9.82;;;;;;;;;;4994490;28;20100;-89
2022/09/08 07:43:37;;;;;;;11.82;7.97;;;16.70;1.00;;;;;;5023633;28;20183;-90
2022/09/08 07:46:12;;;;;;;15.80;10.00;;;;;;;;;;4999632;28;20041;-93
2022/09/08 07:48:59;;;;;;;14.63;9.45;;;16.20;1.00;;;;;;4996207;28;20045;-89
2022/09/08 07:51:33;;;;;;;12.88;8.73;;;16.70;1.00;;;;;;4975601;28;20375;-89
2022/09/08 07:54:21;;;;;;;11.63;6.45;;;16.20;1.00;;;;;;4971469;28;20042;-89
2022/09/08 07:56:56;;;;;;;7.97;4.65;;;16.70;1.00;;;;;;4983536;28;20049;-87
2022/09/08 07:59:51;;;;;;;8.13;4.47;;;16.30;1.00;;;;;;4980725;28;20092;-89
2022/09/08 08:02:41;;;;;;;6.13;2.80;;;16.00;1.00;;;;;;4991847;28;20049;-86
2022/09/08 08:05:10;;;;;;;7.40;4.30;;;;;;;;;;4977545;28;20053;-90
2022/09/08 08:07:51;;;;;;;8.13;4.28;;;;;;;;;;4992575;28;20548;-89
2022/09/08 08:10:27;;;;;;;6.85;3.85;;;15.80;1.00;;;;;;4993084;28;20505;-89
2022/09/08 08:12:56;;;;;;;7.70;4.05;;;;;;;;;;4973039;28;20037;-89
2022/09/08 08:15:39;;;;;;;8.32;4.75;;;15.50;1.00;;;;;;5012345;28;20120;-89
2022/09/08 08:18:11;;;;;;;8.10;4.68;;;;;;;;;;4979781;28;20468;-88
2022/09/08 08:21:03;;;;;;;7.72;4.47;;;15.60;1.00;;;;;;4997345;28;20796;-89
2022/09/08 08:23:41;;;;;;;6.80;3.97;;;15.60;1.00;;;;;;5004872;28;20413;-90
2022/09/08 08:26:28;;;;;;;9.50;5.15;;;15.90;1.00;;;;;;4983476;28;20394;-90
2022/09/08 08:29:33;;;;;;;9.32;4.18;;;15.30;1.00;;;;;;4980861;28;20482;-90
2022/09/08 08:32:05;;;;;;;7.47;4.00;;;15.70;1.00;;;;;;4981597;28;20046;-89
2022/09/08 08:34:38;;;;;;;8.43;4.18;;;16.70;1.00;;;;;;4982515;28;20056;-90
2022/09/08 08:37:05;;;;;;;7.15;4.43;;;16.30;1.00;;;;;;4994656;28;20040;-89
2022/09/08 08:39:35;;;;;;;7.78;3.33;;;15.80;1.00;;;;;;4982170;28;20041;-87
2022/09/08 08:42:35;;;;;;;6.85;3.40;;;16.60;1.00;;;;;;4986758;28;20525;-88
2022/09/08 08:45:31;;;;;;;7.93;3.30;;;16.50;1.00;;;;;;5003616;28;20076;-90
2022/09/08 08:48:00;;;;;;;6.10;3.00;;;;;;;;;;4966532;28;20128;-90
2022/09/08 08:50:35;;;;;;;7.10;2.80;;;15.70;1.00;;;;;;5001894;28;20044;-89
2022/09/08 08:53:21;;;;;;;6.70;2.60;;;16.30;1.00;;;;;;5002317;28;20120;-91
2022/09/08 08:56:09;;;;;;;6.18;3.22;;;15.80;1.00;;;;;;5000002;28;20104;-90
2022/09/08 08:58:44;;;;;;;5.45;2.90;;;15.70;1.00;;;;;;4993741;28;20132;-88
2022/09/08 09:01:17;;;;;;;;;;;15.80;1.00;;;;;;4973322;28;20041;-90
2022/09/08 09:03:49;;;;;;;5.90;2.40;;;;;;;;;;4975764;28;20352;-88
2022/09/08 09:06:37;;;;;;;6.18;2.75;;;16.30;1.00;;;;;;4973140;28;20038;-89
2022/09/08 09:09:18;;;;;;;6.13;2.78;;;15.50;1.00;;;;;;4988077;28;20042;-88
2022/09/08 09:11:46;;;;;;;7.70;4.20;;;15.70;1.00;;;;;;4989036;28;20092;-88
2022/09/08 09:14:27;;;;;;;7.40;3.70;;;16.90;1.00;;;;;;4997246;28;20038;-88
2022/09/08 09:17:28;;;;;;;6.57;3.58;;;17.10;1.00;;;;;;5069033;22;20053;-70
2022/09/08 09:20:15;;;;;;;7.68;3.28;;;16.60;1.00;;;;;;4930007;29;20071;-70
2022/09/08 09:23:02;;;;;;;6.05;3.30;;;16.60;1.00;;;;;;5010601;28;20049;-69
2022/09/08 09:25:36;;;;;;;8.00;3.25;;;17.00;1.00;;;;;;4984397;28;20045;-71
2022/09/08 09:28:21;;;;;;;;;;;16.90;1.00;;;;;;5005445;28;20038;-71
2022/09/08 09:31:00;;;;;;;6.20;3.08;;;;;;;;;;4993331;28;20298;-71
2022/09/08 09:33:34;;;;;;;6.05;3.45;;;16.20;1.00;;;;;;4993549;28;20034;-71
2022/09/08 09:36:00;;;;;;;;;;;;;;;;;;4994140;28;20389;-71
2022/09/08 09:38:32;;;;;;;7.65;3.63;;;15.90;1.00;;;;;;4993172;28;19928;-71
2022/09/08 09:41:18;;;;;;;7.40;3.10;;;15.40;1.00;;;;;;4993237;28;20038;-72
2022/09/08 09:44:05;;;;;;;5.82;3.00;;;16.30;1.00;;;;;;5001164;28;20050;-71
2022/09/08 09:46:42;;;;;;;6.25;3.08;;;16.80;1.00;;;;;;4975715;28;20042;-71
2022/09/08 09:49:25;;;;;;;9.13;3.55;;;16.20;1.00;;;;;;4999394;28;20046;-71
2022/09/08 09:51:59;;;;;;;5.50;2.90;;;16.10;1.00;;;;;;4978921;28;20133;-71
2022/09/08 09:55:02;;;;;;;5.38;2.78;;;16.40;1.00;;;;;;5004551;28;20257;-71
2022/09/08 09:57:47;;;;;;;7.47;2.83;;;;;;;;;;4984683;28;20069;-71
2022/09/08 10:00:18;;;;;;;6.47;2.50;;;15.80;1.00;;;;;;4967302;28;20031;-70
2022/09/08 10:03:04;;;;;;;8.73;3.78;;;15.40;1.00;;;;;;4990446;28;20042;-70
2022/09/08 10:06:25;;;;;;;5.25;2.85;;;15.50;1.00;;;;;;4988770;28;20049;-70
2022/09/08 10:08:57;;;;;;;5.05;2.55;;;16.00;1.00;;;;;;4930688;29;20083;-69
2022/09/08 10:12:00;;;;;;;5.25;2.50;;;16.70;1.00;;;;;;4932384;29;20106;-69
2022/09/08 10:15:05;;;;;;;5.07;2.63;;;16.30;1.00;;;;;;4978509;28;20054;-70
2022/09/08 10:17:42;;;;;;;5.35;2.65;;;15.90;1.00;;;;;;4971577;28;20050;-70
2022/09/08 10:20:49;;;;;;;5.45;2.92;;;15.30;1.00;;;;;;4974415;28;20401;-70
2022/09/08 10:23:26;;;;;;;8.68;3.53;;;15.90;1.00;;;;;;4992796;28;20043;-70
2022/09/08 10:26:03;;;;;;;6.53;3.47;;;15.90;1.00;;;;;;4992133;28;20447;-70
2022/09/08 10:28:55;;;;;;;6.43;3.38;;;15.50;1.00;;;;;;4986872;28;20058;-70
2022/09/08 10:31:40;;;;;;;6.07;3.78;;;15.80;1.00;;;;;;5001727;28;20432;-70
2022/09/08 10:34:23;;;;;;;7.35;4.82;;;16.50;1.00;;;;;;4974615;28;20041;-70
2022/09/08 10:36:57;;;;;;;7.72;4.85;;;;;;;;;;4992313;28;20074;-70
2022/09/08 10:39:41;;;;;;;9.27;5.05;;;;;;;;;;4992369;28;20038;-70
2022/09/08 10:42:16;;;;;;;7.95;4.75;;;;;;;;;;4997698;28;20044;-70
2022/09/08 10:45:00;;;;;;;8.65;5.10;;;17.00;1.00;;;;;;4986860;28;20437;-70
2022/09/08 10:47:55;;;;;;;9.65;5.80;;;16.10;1.00;;;;;;4982824;28;20518;-70
2022/09/08 10:50:29;;;;;;;8.65;4.50;;;16.30;1.00;;;;;;4991220;28;20038;-70
2022/09/08 10:53:19;;;;;;;8.25;4.50;;;16.30;1.00;;;;;;4984032;28;20470;-70
2022/09/08 10:55:56;;;;;;;9.93;4.93;;;;;;;;;;5002253;28;20041;-70
2022/09/08 10:58:56;;;;;;;9.65;5.25;;;15.80;1.00;;;;;;4981339;28;20038;-71
2022/09/08 11:01:54;;;;;;;8.43;5.10;;;16.40;1.00;;;;;;4973563;28;20369;-71
2022/09/08 11:04:33;;;;;;;9.50;4.60;;;;;;;;;;4977793;28;20042;-70
2022/09/08 11:07:19;;;;;;;8.90;3.78;;;16.10;1.00;;;;;;4991221;28;20117;-70
2022/09/08 11:10:06;;;;;;;7.55;4.15;;;16.20;1.00;;;;;;4991609;28;20433;-71
2022/09/08 11:12:51;;;;;;;6.93;3.85;;;;;;;;;;4992029;28;20042;-71
2022/09/08 11:15:25;;;;;;;7.97;3.88;;;16.40;1.00;;;;;;4987156;28;20049;-70
2022/09/08 11:17:52;;;;;;;9.43;4.05;;;16.20;1.00;;;;;;4998706;28;20045;-70
2022/09/08 11:20:29;;;;;;;6.97;4.18;;;17.00;1.00;;;;;;4978444;28;20320;-70
2022/09/08 11:23:30;;;;;;;7.50;3.65;;;16.20;1.00;;;;;;4989485;28;20037;-70
2022/09/08 11:26:14;;;;;;;7.15;4.40;;;16.70;1.00;;;;;;4958485;28;20050;-70
2022/09/08 11:29:01;;;;;;;7.47;4.20;;;15.80;1.00;;;;;;4988338;28;20053;-70
2022/09/08 11:31:41;;;;;;;8.32;3.92;;;17.00;1.00;;;;;;4970662;28;20069;-70
2022/09/08 11:34:13;;;;;;;7.07;4.40;;;15.90;1.00;;;;;;4988900;28;20121;-70
2022/09/08 11:37:03;;;;;;;7.38;4.57;;;16.50;1.00;;;;;;4955794;28;20074;-70
2022/09/08 11:39:46;;;;;;;8.20;4.63;;;17.10;1.00;;;;;;4989320;28;20046;-69
2022/09/08 11:42:33;;;;;;;9.90;5.10;;;17.10;1.00;;;;;;4971071;28;20109;-69
2022/09/08 11:45:35;;;;;;;9.15;4.38;;;16.70;1.00;;;;;;4990471;28;20046;-69
2022/09/08 11:48:19;;;;;;;9.30;5.45;;;16.70;1.00;;;;;;4990197;28;20046;-69
2022/09/08 11:50:51;;;;;;;7.93;4.85;;;16.50;1.00;;;;;;4973409;28;20096;-69
2022/09/08 11:53:29;;;;;;;10.10;5.22;;;;;;;;;;4989599;28;20547;-69
2022/09/08 11:56:04;;;;;;;9.50;5.82;;;16.90;1.00;;;;;;4990390;28;20101;-69
2022/09/08 11:59:13;;;;;;;10.18;5.45;;;16.40;1.00;;;;;;4990636;28;20488;-70
2022/09/08 12:02:02;;;;;;;7.43;4.53;;;17.20;1.00;;;;;;4988799;28;20046;-70
2022/09/08 12:05:06;;;;;;;8.93;4.88;;;17.30;1.00;;;;;;4990582;28;20586;-70
2022/09/08 12:07:57;;;;;;;8.77;4.70;;;17.40;1.00;;;;;;4969631;28;20576;-69
2022/09/08 12:10:22;;;;;;;7.47;4.40;;;17.00;1.00;;;;;;4984570;28;20096;-69
2022/09/08 12:12:51;;;;;;;9.05;3.78;;;17.10;1.00;;;;;;4974464;28;20046;-69
2022/09/08 12:15:23;;;;;;;8.95;4.47;;;16.30;1.00;;;;;;4985828;28;20026;-69
2022/09/08 12:18:19;;;;;;;8.05;4.50;;;17.00;1.00;;;;;;4972116;28;20108;-70
2022/09/08 12:21:06;;;;;;;8.18;4.55;;;17.10;1.00;;;;;;4988718;28;20038;-70
2022/09/08 12:23:36;;;;;;;10.30;5.20;;;16.80;1.00;;;;;;4973199;28;20046;-70
2022/09/08 12:26:11;;;;;;;8.38;4.43;;;17.30;1.00;;;;;;4990407;28;20369;-71
2022/09/08 12:28:56;;;;;;;9.50;4.80;;;17.50;1.00;;;;;;5002518;28;20499;-71
2022/09/08 12:31:43;;;;;;;7.90;4.53;;;17.10;1.00;;;;;;4996353;28;20030;-71
2022/09/08 12:34:25;;;;;;;7.40;4.65;;;17.20;1.00;;;;;;4970526;28;20046;-71
2022/09/08 12:36:55;;;;;;;9.85;5.35;;;17.70;1.00;;;;;;4988913;28;20073;-71
2022/09/08 12:39:58;;;;;;;10.63;6.57;;;17.50;1.00;;;;;;4967699;28;20101;-71
2022/09/08 12:42:47;;;;;;;9.13;5.57;;;17.50;1.00;;;;;;5000863;28;20042;-71
2022/09/08 12:45:27;;;;;;;12.02;7.55;;;17.70;1.00;;;;;;4990590;28;20039;-71
2022/09/08 12:48:09;;;;;;;11.38;7.63;;;17.90;1.00;;;;;;4970372;28;20053;-70
2022/09/08 12:50:36;;;;;;;10.00;7.43;;;18.00;1.00;;;;;;4990684;28;20451;-71
2022/09/08 12:53:22;;;;;;;14.90;8.90;;;17.80;1.00;;;;;;4976816;28;20042;-71
2022/09/08 12:56:21;;;;;;;13.15;9.55;;;17.40;1.00;;;;;;4989265;28;20436;-70
2022/09/08 12:58:53;;;;;;;13.63;10.25;;;17.50;1.00;;;;;;4972676;28;20385;-70
2022/09/08 13:01:40;;;;;;;12.38;8.43;;;17.70;1.00;;;;;;4990637;28;20038;-70
2022/09/08 13:04:30;;;;;;;14.98;9.88;;;17.60;1.00;;;;;;4957523;28;20071;-70
2022/09/08 13:07:16;;;;;;;14.27;10.50;;;17.80;1.00;;;;;;5001603;28;20044;-70
2022/09/08 13:10:18;;;;;;;14.32;9.30;;;19.00;1.00;;;;;;4991556;28;20034;-70
2022/09/08 13:13:06;;;;;;;14.73;9.13;;;18.80;1.00;;;;;;4986730;28;20037;-71
2022/09/08 13:15:47;;;;;;;17.55;11.57;;;19.00;1.00;;;;;;5002758;28;20048;-70
2022/09/08 13:18:32;;;;;;;14.45;11.27;;;19.10;1.00;;;;;;4989288;28;20043;-70
2022/09/08 13:21:07;;;;;;;13.88;10.63;;;20.30;1.00;;;;;;4978303;28;20041;-70
2022/09/08 13:23:47;;;;;;;14.65;11.32;;;19.10;1.00;;;;;;4985771;28;20354;-70
2022/09/08 13:26:50;;;;;;;15.35;10.80;;;18.90;1.00;;;;;;5000470;28;20136;-70
2022/09/08 13:29:16;;;;;;;14.23;10.88;;;19.20;1.00;;;;;;4984607;28;20034;-70
2022/09/08 13:31:53;;;;;;;13.23;11.18;;;19.00;1.00;;;;;;4974874;28;20110;-70
2022/09/08 13:34:40;;;;;;;16.08;11.60;;;19.10;1.00;;;;;;4993961;28;20038;-70
2022/09/08 13:37:14;;;;;;;14.80;12.05;;;19.20;1.00;;;;;;4969321;28;20100;-70
2022/09/08 13:39:46;;;;;;;;;;;19.60;1.00;;;;;;4970509;28;20061;-70
2022/09/08 13:42:28;;;;;;;15.65;11.70;;;19.20;1.00;;;;;;4974648;28;19921;-70
2022/09/08 13:45:21;;;;;;;16.27;12.23;;;19.40;1.00;;;;;;4984248;28;20044;-70
2022/09/08 13:48:02;;;;;;;13.38;9.85;;;19.70;1.00;;;;;;4997498;28;20123;-70
2022/09/08 13:51:00;;;;;;;16.58;11.63;;;19.70;1.00;;;;;;4997465;28;20058;-70